sensor_id;sensor_type;location;lat;lon;timestamp;P1;durP1;ratioP1;P2;durP2;ratioP2
46222;SDS011;31943;51.410;7.564;2023-08-06T00:00:47;3.47;;;2.45;;
46222;SDS011;31943;51.410;7.564;2023-08-06T00:03:13;3.67;;;2.58;;
46222;SDS011;31943;51.410;7.564;2023-08-06T00:05:42;3.50;;;2.30;;
46222;SDS011;31943;51.410;7.564;2023-08-06T00:08:09;6.07;;;2.28;;
46222;SDS011;31943;51.410;7.564;2023-08-06T00:10:35;4.30;;;2.25;;
46222;SDS011;31943;51.410;7.564;2023-08-06T00:13:01;5.65;;;2.40;;
46222;SDS011;31943;51.410;7.564;2023-08-06T00:15:27;3.20;;;2.30;;
46222;SDS011;31943;51.410;7.564;2023-08-06T00:17:52;3.17;;;2.03;;
46222;SDS011;31943;51.410;7.564;2023-08-06T00:20:18;6.22;;;2.60;;
46222;SDS011;31943;51.410;7.564;2023-08-06T00:22:45;3.00;;;2.47;;
46222;SDS011;31943;51.410;7.564;2023-08-06T00:25:12;4.57;;;2.50;;
46222;SDS011;31943;51.410;7.564;2023-08-06T00:27:39;5.70;;;2.10;;
46222;SDS011;31943;51.410;7.564;2023-08-06T00:30:05;5.22;;;2.10;;
46222;SDS011;31943;51.410;7.564;2023-08-06T00:32:32;3.25;;;2.17;;
46222;SDS011;31943;51.410;7.564;2023-08-06T00:34:57;4.88;;;2.40;;
46222;SDS011;31943;51.410;7.564;2023-08-06T00:37:23;9.10;;;2.80;;
46222;SDS011;31943;51.410;7.564;2023-08-06T00:39:50;3.08;;;2.35;;
46222;SDS011;31943;51.410;7.564;2023-08-06T00:42:16;3.42;;;2.75;;
46222;SDS011;31943;51.410;7.564;2023-08-06T00:44:42;3.25;;;2.28;;
46222;SDS011;31943;51.410;7.564;2023-08-06T00:47:09;4.80;;;2.45;;
46222;SDS011;31943;51.410;7.564;2023-08-06T00:49:35;4.13;;;2.55;;
46222;SDS011;31943;51.410;7.564;2023-08-06T00:52:01;3.05;;;2.50;;
46222;SDS011;31943;51.410;7.564;2023-08-06T00:54:28;5.70;;;2.30;;
46222;SDS011;31943;51.410;7.564;2023-08-06T00:56:58;4.80;;;2.35;;
46222;SDS011;31943;51.410;7.564;2023-08-06T00:59:24;5.75;;;2.38;;
46222;SDS011;31943;51.410;7.564;2023-08-06T01:01:51;5.55;;;2.65;;
46222;SDS011;31943;51.410;7.564;2023-08-06T01:04:18;3.35;;;2.35;;
46222;SDS011;31943;51.410;7.564;2023-08-06T01:06:46;3.92;;;2.40;;
46222;SDS011;31943;51.410;7.564;2023-08-06T01:09:17;2.72;;;2.10;;
46222;SDS011;31943;51.410;7.564;2023-08-06T01:11:55;3.10;;;2.60;;
46222;SDS011;31943;51.410;7.564;2023-08-06T01:14:30;4.03;;;2.75;;
46222;SDS011;31943;51.410;7.564;2023-08-06T01:17:03;4.13;;;2.67;;
46222;SDS011;31943;51.410;7.564;2023-08-06T01:19:30;7.78;;;2.88;;
46222;SDS011;31943;51.410;7.564;2023-08-06T01:21:57;2.75;;;2.20;;
46222;SDS011;31943;51.410;7.564;2023-08-06T01:24:22;2.95;;;2.55;;
46222;SDS011;31943;51.410;7.564;2023-08-06T01:26:50;6.00;;;2.70;;
46222;SDS011;31943;51.410;7.564;2023-08-06T01:29:25;3.67;;;2.33;;
46222;SDS011;31943;51.410;7.564;2023-08-06T01:31:56;4.35;;;2.58;;
46222;SDS011;31943;51.410;7.564;2023-08-06T01:34:24;4.25;;;2.65;;
46222;SDS011;31943;51.410;7.564;2023-08-06T01:36:53;5.35;;;2.53;;
46222;SDS011;31943;51.410;7.564;2023-08-06T01:39:20;3.22;;;2.83;;
46222;SDS011;31943;51.410;7.564;2023-08-06T01:41:46;3.70;;;3.05;;
46222;SDS011;31943;51.410;7.564;2023-08-06T01:44:12;3.03;;;2.38;;
46222;SDS011;31943;51.410;7.564;2023-08-06T01:46:37;6.13;;;3.13;;
46222;SDS011;31943;51.410;7.564;2023-08-06T01:49:03;3.88;;;2.70;;
46222;SDS011;31943;51.410;7.564;2023-08-06T01:51:29;3.05;;;2.75;;
46222;SDS011;31943;51.410;7.564;2023-08-06T01:53:56;3.35;;;2.80;;
46222;SDS011;31943;51.410;7.564;2023-08-06T01:56:24;3.20;;;2.90;;
46222;SDS011;31943;51.410;7.564;2023-08-06T01:58:49;5.38;;;2.50;;
46222;SDS011;31943;51.410;7.564;2023-08-06T02:01:16;6.07;;;2.90;;
46222;SDS011;31943;51.410;7.564;2023-08-06T02:03:42;8.45;;;2.92;;
46222;SDS011;31943;51.410;7.564;2023-08-06T02:06:08;3.70;;;2.65;;
46222;SDS011;31943;51.410;7.564;2023-08-06T02:08:34;3.83;;;2.90;;
46222;SDS011;31943;51.410;7.564;2023-08-06T02:10:59;2.30;;;2.10;;
46222;SDS011;31943;51.410;7.564;2023-08-06T02:13:26;5.57;;;2.40;;
46222;SDS011;31943;51.410;7.564;2023-08-06T02:15:52;3.03;;;2.50;;
46222;SDS011;31943;51.410;7.564;2023-08-06T02:18:19;5.47;;;2.80;;
46222;SDS011;31943;51.410;7.564;2023-08-06T02:20:54;6.95;;;2.88;;
46222;SDS011;31943;51.410;7.564;2023-08-06T02:23:21;3.90;;;2.53;;
46222;SDS011;31943;51.410;7.564;2023-08-06T02:25:46;3.05;;;2.42;;
46222;SDS011;31943;51.410;7.564;2023-08-06T02:28:12;5.28;;;2.50;;
46222;SDS011;31943;51.410;7.564;2023-08-06T02:30:39;3.88;;;2.50;;
46222;SDS011;31943;51.410;7.564;2023-08-06T02:33:15;4.60;;;2.90;;
46222;SDS011;31943;51.410;7.564;2023-08-06T02:35:41;3.92;;;2.50;;
46222;SDS011;31943;51.410;7.564;2023-08-06T02:38:07;6.15;;;2.80;;
46222;SDS011;31943;51.410;7.564;2023-08-06T02:40:34;6.07;;;2.60;;
46222;SDS011;31943;51.410;7.564;2023-08-06T02:43:01;3.65;;;2.83;;
46222;SDS011;31943;51.410;7.564;2023-08-06T02:45:28;5.25;;;2.53;;
46222;SDS011;31943;51.410;7.564;2023-08-06T02:47:56;4.47;;;2.40;;
46222;SDS011;31943;51.410;7.564;2023-08-06T02:50:22;4.65;;;2.60;;
46222;SDS011;31943;51.410;7.564;2023-08-06T02:52:47;4.05;;;2.53;;
46222;SDS011;31943;51.410;7.564;2023-08-06T02:55:16;3.67;;;2.78;;
46222;SDS011;31943;51.410;7.564;2023-08-06T02:57:41;2.95;;;2.40;;
46222;SDS011;31943;51.410;7.564;2023-08-06T03:00:07;3.22;;;2.63;;
46222;SDS011;31943;51.410;7.564;2023-08-06T03:02:34;4.45;;;2.55;;
46222;SDS011;31943;51.410;7.564;2023-08-06T03:05:04;2.90;;;2.50;;
46222;SDS011;31943;51.410;7.564;2023-08-06T03:07:30;4.43;;;2.63;;
46222;SDS011;31943;51.410;7.564;2023-08-06T03:09:56;4.18;;;2.65;;
46222;SDS011;31943;51.410;7.564;2023-08-06T03:12:21;3.03;;;2.65;;
46222;SDS011;31943;51.410;7.564;2023-08-06T03:14:48;3.85;;;2.40;;
46222;SDS011;31943;51.410;7.564;2023-08-06T03:17:14;2.90;;;2.50;;
46222;SDS011;31943;51.410;7.564;2023-08-06T03:19:40;3.83;;;2.78;;
46222;SDS011;31943;51.410;7.564;2023-08-06T03:22:09;2.92;;;2.58;;
46222;SDS011;31943;51.410;7.564;2023-08-06T03:24:37;2.90;;;2.35;;
46222;SDS011;31943;51.410;7.564;2023-08-06T03:27:02;2.78;;;2.20;;
46222;SDS011;31943;51.410;7.564;2023-08-06T03:29:28;2.80;;;2.60;;
46222;SDS011;31943;51.410;7.564;2023-08-06T03:31:54;4.72;;;2.78;;
46222;SDS011;31943;51.410;7.564;2023-08-06T03:34:20;6.28;;;2.65;;
46222;SDS011;31943;51.410;7.564;2023-08-06T03:36:45;2.80;;;2.40;;
46222;SDS011;31943;51.410;7.564;2023-08-06T03:39:12;3.00;;;2.70;;
46222;SDS011;31943;51.410;7.564;2023-08-06T03:41:38;6.63;;;2.90;;
46222;SDS011;31943;51.410;7.564;2023-08-06T03:44:03;4.80;;;2.45;;
46222;SDS011;31943;51.410;7.564;2023-08-06T03:46:29;4.65;;;2.55;;
46222;SDS011;31943;51.410;7.564;2023-08-06T03:48:55;2.90;;;2.70;;
46222;SDS011;31943;51.410;7.564;2023-08-06T03:51:22;4.07;;;2.47;;
46222;SDS011;31943;51.410;7.564;2023-08-06T03:53:47;2.75;;;2.30;;
46222;SDS011;31943;51.410;7.564;2023-08-06T03:56:14;4.05;;;2.42;;
46222;SDS011;31943;51.410;7.564;2023-08-06T03:58:40;6.57;;;2.42;;
46222;SDS011;31943;51.410;7.564;2023-08-06T04:01:06;4.47;;;2.47;;
46222;SDS011;31943;51.410;7.564;2023-08-06T04:03:31;5.22;;;2.90;;
46222;SDS011;31943;51.410;7.564;2023-08-06T04:05:58;5.40;;;2.28;;
46222;SDS011;31943;51.410;7.564;2023-08-06T04:08:24;6.65;;;2.90;;
46222;SDS011;31943;51.410;7.564;2023-08-06T04:10:50;3.88;;;2.90;;
46222;SDS011;31943;51.410;7.564;2023-08-06T04:13:19;3.72;;;2.45;;
46222;SDS011;31943;51.410;7.564;2023-08-06T04:15:44;2.85;;;2.15;;
46222;SDS011;31943;51.410;7.564;2023-08-06T04:18:10;3.75;;;2.47;;
46222;SDS011;31943;51.410;7.564;2023-08-06T04:20:41;2.97;;;2.28;;
46222;SDS011;31943;51.410;7.564;2023-08-06T04:23:09;9.38;;;2.78;;
46222;SDS011;31943;51.410;7.564;2023-08-06T04:25:35;2.58;;;2.30;;
46222;SDS011;31943;51.410;7.564;2023-08-06T04:28:00;2.70;;;2.20;;
46222;SDS011;31943;51.410;7.564;2023-08-06T04:30:27;2.80;;;2.13;;
46222;SDS011;31943;51.410;7.564;2023-08-06T04:32:53;6.15;;;2.40;;
46222;SDS011;31943;51.410;7.564;2023-08-06T04:35:19;3.28;;;2.40;;
46222;SDS011;31943;51.410;7.564;2023-08-06T04:37:49;6.13;;;2.55;;
46222;SDS011;31943;51.410;7.564;2023-08-06T04:40:15;4.15;;;2.30;;
46222;SDS011;31943;51.410;7.564;2023-08-06T04:42:41;3.22;;;2.05;;
46222;SDS011;31943;51.410;7.564;2023-08-06T04:45:07;2.63;;;1.80;;
46222;SDS011;31943;51.410;7.564;2023-08-06T04:47:34;4.32;;;2.35;;
46222;SDS011;31943;51.410;7.564;2023-08-06T04:50:01;2.97;;;2.15;;
46222;SDS011;31943;51.410;7.564;2023-08-06T04:52:26;3.05;;;2.13;;
46222;SDS011;31943;51.410;7.564;2023-08-06T04:54:53;4.05;;;2.05;;
46222;SDS011;31943;51.410;7.564;2023-08-06T04:57:20;7.18;;;2.17;;
46222;SDS011;31943;51.410;7.564;2023-08-06T04:59:47;5.03;;;2.42;;
46222;SDS011;31943;51.410;7.564;2023-08-06T05:02:13;2.78;;;1.77;;
46222;SDS011;31943;51.410;7.564;2023-08-06T05:04:40;3.53;;;2.15;;
46222;SDS011;31943;51.410;7.564;2023-08-06T05:07:05;5.63;;;2.08;;
46222;SDS011;31943;51.410;7.564;2023-08-06T05:09:31;4.35;;;2.13;;
46222;SDS011;31943;51.410;7.564;2023-08-06T05:11:57;4.75;;;2.38;;
46222;SDS011;31943;51.410;7.564;2023-08-06T05:14:24;7.03;;;2.38;;
46222;SDS011;31943;51.410;7.564;2023-08-06T05:16:49;4.25;;;2.20;;
46222;SDS011;31943;51.410;7.564;2023-08-06T05:19:16;4.60;;;2.45;;
46222;SDS011;31943;51.410;7.564;2023-08-06T05:21:43;3.88;;;2.30;;
46222;SDS011;31943;51.410;7.564;2023-08-06T05:24:10;4.35;;;2.67;;
46222;SDS011;31943;51.410;7.564;2023-08-06T05:26:36;3.72;;;2.30;;
46222;SDS011;31943;51.410;7.564;2023-08-06T05:29:02;5.22;;;2.78;;
46222;SDS011;31943;51.410;7.564;2023-08-06T05:31:27;5.47;;;2.70;;
46222;SDS011;31943;51.410;7.564;2023-08-06T05:33:54;5.55;;;2.55;;
46222;SDS011;31943;51.410;7.564;2023-08-06T05:36:20;6.10;;;2.80;;
46222;SDS011;31943;51.410;7.564;2023-08-06T05:38:48;4.20;;;2.83;;
46222;SDS011;31943;51.410;7.564;2023-08-06T05:41:14;5.75;;;2.53;;
46222;SDS011;31943;51.410;7.564;2023-08-06T05:43:40;6.97;;;2.85;;
46222;SDS011;31943;51.410;7.564;2023-08-06T05:46:06;3.47;;;2.78;;
46222;SDS011;31943;51.410;7.564;2023-08-06T05:48:34;3.25;;;2.40;;
46222;SDS011;31943;51.410;7.564;2023-08-06T05:50:59;5.05;;;2.75;;
46222;SDS011;31943;51.410;7.564;2023-08-06T05:53:25;5.88;;;2.40;;
46222;SDS011;31943;51.410;7.564;2023-08-06T05:55:52;5.97;;;2.70;;
46222;SDS011;31943;51.410;7.564;2023-08-06T05:58:18;5.25;;;2.65;;
46222;SDS011;31943;51.410;7.564;2023-08-06T06:00:43;3.63;;;2.20;;
46222;SDS011;31943;51.410;7.564;2023-08-06T06:03:13;4.07;;;2.00;;
46222;SDS011;31943;51.410;7.564;2023-08-06T06:05:40;3.30;;;2.30;;
46222;SDS011;31943;51.410;7.564;2023-08-06T06:08:05;4.03;;;2.38;;
46222;SDS011;31943;51.410;7.564;2023-08-06T06:10:31;5.03;;;2.30;;
46222;SDS011;31943;51.410;7.564;2023-08-06T06:12:58;2.67;;;1.90;;
46222;SDS011;31943;51.410;7.564;2023-08-06T06:15:24;2.70;;;2.00;;
46222;SDS011;31943;51.410;7.564;2023-08-06T06:17:49;7.25;;;1.92;;
46222;SDS011;31943;51.410;7.564;2023-08-06T06:20:15;4.68;;;1.90;;
46222;SDS011;31943;51.410;7.564;2023-08-06T06:22:40;4.93;;;1.80;;
46222;SDS011;31943;51.410;7.564;2023-08-06T06:25:06;3.20;;;2.08;;
46222;SDS011;31943;51.410;7.564;2023-08-06T06:27:32;2.40;;;1.50;;
46222;SDS011;31943;51.410;7.564;2023-08-06T06:30:00;2.75;;;1.50;;
46222;SDS011;31943;51.410;7.564;2023-08-06T06:32:25;3.00;;;1.40;;
46222;SDS011;31943;51.410;7.564;2023-08-06T06:34:51;3.75;;;1.67;;
46222;SDS011;31943;51.410;7.564;2023-08-06T06:37:16;3.85;;;1.55;;
46222;SDS011;31943;51.410;7.564;2023-08-06T06:39:42;2.03;;;1.30;;
46222;SDS011;31943;51.410;7.564;2023-08-06T06:42:08;2.85;;;1.65;;
46222;SDS011;31943;51.410;7.564;2023-08-06T06:44:33;4.00;;;1.63;;
46222;SDS011;31943;51.410;7.564;2023-08-06T06:47:00;3.22;;;1.75;;
46222;SDS011;31943;51.410;7.564;2023-08-06T06:49:26;3.20;;;1.50;;
46222;SDS011;31943;51.410;7.564;2023-08-06T06:51:51;2.13;;;1.40;;
46222;SDS011;31943;51.410;7.564;2023-08-06T06:54:17;2.20;;;1.33;;
46222;SDS011;31943;51.410;7.564;2023-08-06T06:56:42;2.25;;;1.50;;
46222;SDS011;31943;51.410;7.564;2023-08-06T06:59:08;3.60;;;2.00;;
46222;SDS011;31943;51.410;7.564;2023-08-06T07:01:33;5.20;;;1.63;;
46222;SDS011;31943;51.410;7.564;2023-08-06T07:04:01;2.92;;;1.45;;
46222;SDS011;31943;51.410;7.564;2023-08-06T07:06:26;2.78;;;1.52;;
46222;SDS011;31943;51.410;7.564;2023-08-06T07:08:52;2.40;;;1.55;;
46222;SDS011;31943;51.410;7.564;2023-08-06T07:11:17;3.03;;;1.70;;
46222;SDS011;31943;51.410;7.564;2023-08-06T07:13:43;3.17;;;1.33;;
46222;SDS011;31943;51.410;7.564;2023-08-06T07:16:09;2.85;;;1.30;;
46222;SDS011;31943;51.410;7.564;2023-08-06T07:18:34;3.22;;;1.63;;
46222;SDS011;31943;51.410;7.564;2023-08-06T07:21:01;4.85;;;1.52;;
46222;SDS011;31943;51.410;7.564;2023-08-06T07:23:27;1.65;;;1.27;;
46222;SDS011;31943;51.410;7.564;2023-08-06T07:25:52;5.45;;;1.38;;
46222;SDS011;31943;51.410;7.564;2023-08-06T07:28:18;2.22;;;1.38;;
46222;SDS011;31943;51.410;7.564;2023-08-06T07:30:44;2.53;;;1.17;;
46222;SDS011;31943;51.410;7.564;2023-08-06T07:33:10;2.03;;;1.15;;
46222;SDS011;31943;51.410;7.564;2023-08-06T07:35:36;3.40;;;1.30;;
46222;SDS011;31943;51.410;7.564;2023-08-06T07:38:03;1.95;;;1.30;;
46222;SDS011;31943;51.410;7.564;2023-08-06T07:40:29;2.67;;;1.25;;
46222;SDS011;31943;51.410;7.564;2023-08-06T07:42:54;3.22;;;1.48;;
46222;SDS011;31943;51.410;7.564;2023-08-06T07:45:20;1.92;;;1.40;;
46222;SDS011;31943;51.410;7.564;2023-08-06T07:47:46;3.55;;;1.35;;
46222;SDS011;31943;51.410;7.564;2023-08-06T07:50:13;3.42;;;1.20;;
46222;SDS011;31943;51.410;7.564;2023-08-06T07:52:39;1.60;;;1.10;;
46222;SDS011;31943;51.410;7.564;2023-08-06T07:55:07;2.67;;;1.27;;
46222;SDS011;31943;51.410;7.564;2023-08-06T07:57:33;1.13;;;1.02;;
46222;SDS011;31943;51.410;7.564;2023-08-06T08:00:00;4.60;;;1.25;;
46222;SDS011;31943;51.410;7.564;2023-08-06T08:02:28;3.90;;;1.40;;
46222;SDS011;31943;51.410;7.564;2023-08-06T08:04:54;3.75;;;1.40;;
46222;SDS011;31943;51.410;7.564;2023-08-06T08:07:20;4.03;;;1.60;;
46222;SDS011;31943;51.410;7.564;2023-08-06T08:09:45;2.22;;;1.50;;
46222;SDS011;31943;51.410;7.564;2023-08-06T08:12:12;2.85;;;1.42;;
46222;SDS011;31943;51.410;7.564;2023-08-06T08:14:38;3.28;;;1.38;;
46222;SDS011;31943;51.410;7.564;2023-08-06T08:17:04;4.47;;;1.40;;
46222;SDS011;31943;51.410;7.564;2023-08-06T08:19:31;3.63;;;1.30;;
46222;SDS011;31943;51.410;7.564;2023-08-06T08:21:57;3.40;;;1.50;;
46222;SDS011;31943;51.410;7.564;2023-08-06T08:24:28;2.83;;;1.40;;
46222;SDS011;31943;51.410;7.564;2023-08-06T08:26:54;5.55;;;1.60;;
46222;SDS011;31943;51.410;7.564;2023-08-06T08:29:22;5.22;;;2.42;;
46222;SDS011;31943;51.410;7.564;2023-08-06T08:31:48;7.93;;;1.60;;
46222;SDS011;31943;51.410;7.564;2023-08-06T08:34:15;4.15;;;1.95;;
46222;SDS011;31943;51.410;7.564;2023-08-06T08:36:41;3.70;;;1.75;;
46222;SDS011;31943;51.410;7.564;2023-08-06T08:39:09;3.03;;;1.45;;
46222;SDS011;31943;51.410;7.564;2023-08-06T08:41:36;3.92;;;1.92;;
46222;SDS011;31943;51.410;7.564;2023-08-06T08:44:03;3.55;;;2.17;;
46222;SDS011;31943;51.410;7.564;2023-08-06T08:46:34;4.40;;;2.35;;
46222;SDS011;31943;51.410;7.564;2023-08-06T08:49:03;5.27;;;2.50;;
46222;SDS011;31943;51.410;7.564;2023-08-06T08:51:29;3.60;;;1.92;;
46222;SDS011;31943;51.410;7.564;2023-08-06T08:53:58;4.35;;;1.95;;
46222;SDS011;31943;51.410;7.564;2023-08-06T08:56:24;3.33;;;2.13;;
46222;SDS011;31943;51.410;7.564;2023-08-06T08:58:50;2.95;;;1.98;;
46222;SDS011;31943;51.410;7.564;2023-08-06T09:01:16;3.22;;;2.58;;
46222;SDS011;31943;51.410;7.564;2023-08-06T09:03:43;4.32;;;2.47;;
46222;SDS011;31943;51.410;7.564;2023-08-06T09:06:11;5.00;;;2.20;;
46222;SDS011;31943;51.410;7.564;2023-08-06T09:08:39;2.45;;;2.17;;
46222;SDS011;31943;51.410;7.564;2023-08-06T09:11:12;3.97;;;1.80;;
46222;SDS011;31943;51.410;7.564;2023-08-06T09:13:38;4.28;;;2.00;;
46222;SDS011;31943;51.410;7.564;2023-08-06T09:16:04;4.78;;;1.48;;
46222;SDS011;31943;51.410;7.564;2023-08-06T09:18:31;4.25;;;1.40;;
46222;SDS011;31943;51.410;7.564;2023-08-06T09:20:58;3.10;;;1.35;;
46222;SDS011;31943;51.410;7.564;2023-08-06T09:23:27;1.88;;;1.23;;
46222;SDS011;31943;51.410;7.564;2023-08-06T09:25:53;1.50;;;1.02;;
46222;SDS011;31943;51.410;7.564;2023-08-06T09:28:19;2.42;;;1.17;;
46222;SDS011;31943;51.410;7.564;2023-08-06T09:30:47;2.10;;;1.02;;
46222;SDS011;31943;51.410;7.564;2023-08-06T09:33:14;2.92;;;1.95;;
46222;SDS011;31943;51.410;7.564;2023-08-06T09:35:43;4.03;;;1.35;;
46222;SDS011;31943;51.410;7.564;2023-08-06T09:38:12;2.92;;;1.60;;
46222;SDS011;31943;51.410;7.564;2023-08-06T09:40:38;3.33;;;1.60;;
46222;SDS011;31943;51.410;7.564;2023-08-06T09:43:04;2.50;;;1.40;;
46222;SDS011;31943;51.410;7.564;2023-08-06T09:45:30;3.22;;;1.70;;
46222;SDS011;31943;51.410;7.564;2023-08-06T09:47:57;3.08;;;1.60;;
46222;SDS011;31943;51.410;7.564;2023-08-06T09:50:27;4.72;;;2.45;;
46222;SDS011;31943;51.410;7.564;2023-08-06T09:52:54;6.93;;;1.73;;
46222;SDS011;31943;51.410;7.564;2023-08-06T09:55:22;4.15;;;1.80;;
46222;SDS011;31943;51.410;7.564;2023-08-06T09:57:49;2.40;;;1.60;;
46222;SDS011;31943;51.410;7.564;2023-08-06T10:00:17;4.13;;;1.92;;
46222;SDS011;31943;51.410;7.564;2023-08-06T10:02:42;3.70;;;1.77;;
46222;SDS011;31943;51.410;7.564;2023-08-06T10:05:10;3.53;;;2.15;;
46222;SDS011;31943;51.410;7.564;2023-08-06T10:07:36;2.95;;;1.85;;
46222;SDS011;31943;51.410;7.564;2023-08-06T10:10:02;4.75;;;2.00;;
46222;SDS011;31943;51.410;7.564;2023-08-06T10:12:31;4.60;;;2.03;;
46222;SDS011;31943;51.410;7.564;2023-08-06T10:14:59;4.55;;;1.85;;
46222;SDS011;31943;51.410;7.564;2023-08-06T10:17:29;5.32;;;1.92;;
46222;SDS011;31943;51.410;7.564;2023-08-06T10:19:58;2.85;;;2.08;;
46222;SDS011;31943;51.410;7.564;2023-08-06T10:22:24;3.97;;;1.40;;
46222;SDS011;31943;51.410;7.564;2023-08-06T10:24:50;3.60;;;1.75;;
46222;SDS011;31943;51.410;7.564;2023-08-06T10:27:21;2.72;;;1.48;;
46222;SDS011;31943;51.410;7.564;2023-08-06T10:29:50;4.32;;;2.00;;
46222;SDS011;31943;51.410;7.564;2023-08-06T10:32:15;3.60;;;1.70;;
46222;SDS011;31943;51.410;7.564;2023-08-06T10:34:54;4.18;;;1.80;;
46222;SDS011;31943;51.410;7.564;2023-08-06T10:37:21;3.35;;;1.67;;
46222;SDS011;31943;51.410;7.564;2023-08-06T10:39:49;2.20;;;1.80;;
46222;SDS011;31943;51.410;7.564;2023-08-06T10:42:19;2.95;;;2.03;;
46222;SDS011;31943;51.410;7.564;2023-08-06T10:47:40;4.85;;;2.55;;
46222;SDS011;31943;51.410;7.564;2023-08-06T10:50:07;3.42;;;2.67;;
46222;SDS011;31943;51.410;7.564;2023-08-06T10:52:36;3.22;;;2.22;;
46222;SDS011;31943;51.410;7.564;2023-08-06T10:55:01;4.60;;;3.03;;
46222;SDS011;31943;51.410;7.564;2023-08-06T10:57:28;3.40;;;2.33;;
46222;SDS011;31943;51.410;7.564;2023-08-06T10:59:54;4.38;;;3.80;;
46222;SDS011;31943;51.410;7.564;2023-08-06T11:02:21;4.05;;;3.53;;
46222;SDS011;31943;51.410;7.564;2023-08-06T11:04:47;5.60;;;3.22;;
46222;SDS011;31943;51.410;7.564;2023-08-06T11:07:14;4.15;;;3.10;;
46222;SDS011;31943;51.410;7.564;2023-08-06T11:09:39;2.63;;;2.40;;
46222;SDS011;31943;51.410;7.564;2023-08-06T11:12:07;3.60;;;2.55;;
46222;SDS011;31943;51.410;7.564;2023-08-06T11:14:34;4.07;;;3.50;;
46222;SDS011;31943;51.410;7.564;2023-08-06T11:17:00;4.00;;;3.00;;
46222;SDS011;31943;51.410;7.564;2023-08-06T11:19:28;3.17;;;2.88;;
46222;SDS011;31943;51.410;7.564;2023-08-06T11:21:54;2.92;;;2.22;;
46222;SDS011;31943;51.410;7.564;2023-08-06T11:24:20;4.35;;;2.70;;
46222;SDS011;31943;51.410;7.564;2023-08-06T11:26:47;5.13;;;2.72;;
46222;SDS011;31943;51.410;7.564;2023-08-06T11:29:13;3.08;;;2.45;;
46222;SDS011;31943;51.410;7.564;2023-08-06T11:31:40;4.70;;;2.72;;
46222;SDS011;31943;51.410;7.564;2023-08-06T11:34:06;3.95;;;1.92;;
46222;SDS011;31943;51.410;7.564;2023-08-06T11:36:34;5.78;;;2.20;;
46222;SDS011;31943;51.410;7.564;2023-08-06T11:39:05;4.40;;;2.80;;
46222;SDS011;31943;51.410;7.564;2023-08-06T11:41:31;2.05;;;1.63;;
46222;SDS011;31943;51.410;7.564;2023-08-06T11:43:57;5.35;;;1.90;;
46222;SDS011;31943;51.410;7.564;2023-08-06T11:46:23;3.80;;;1.88;;
46222;SDS011;31943;51.410;7.564;2023-08-06T11:48:54;2.55;;;1.50;;
46222;SDS011;31943;51.410;7.564;2023-08-06T11:51:22;3.67;;;1.80;;
46222;SDS011;31943;51.410;7.564;2023-08-06T11:53:49;2.72;;;1.50;;
46222;SDS011;31943;51.410;7.564;2023-08-06T11:56:16;2.00;;;1.38;;
46222;SDS011;31943;51.410;7.564;2023-08-06T11:58:42;2.50;;;1.52;;
46222;SDS011;31943;51.410;7.564;2023-08-06T12:01:08;3.92;;;1.90;;
46222;SDS011;31943;51.410;7.564;2023-08-06T12:03:38;1.83;;;1.50;;
46222;SDS011;31943;51.410;7.564;2023-08-06T12:06:07;3.03;;;1.70;;
46222;SDS011;31943;51.410;7.564;2023-08-06T12:08:32;2.75;;;1.60;;
46222;SDS011;31943;51.410;7.564;2023-08-06T12:11:03;2.03;;;1.48;;
46222;SDS011;31943;51.410;7.564;2023-08-06T12:13:29;4.45;;;1.60;;
46222;SDS011;31943;51.410;7.564;2023-08-06T12:15:54;3.13;;;1.85;;
46222;SDS011;31943;51.410;7.564;2023-08-06T12:18:20;2.05;;;1.50;;
46222;SDS011;31943;51.410;7.564;2023-08-06T12:20:47;1.95;;;1.63;;
46222;SDS011;31943;51.410;7.564;2023-08-06T12:23:12;3.92;;;2.00;;
46222;SDS011;31943;51.410;7.564;2023-08-06T12:25:38;3.15;;;1.90;;
46222;SDS011;31943;51.410;7.564;2023-08-06T12:28:06;3.78;;;1.80;;
46222;SDS011;31943;51.410;7.564;2023-08-06T12:30:31;2.63;;;2.42;;
46222;SDS011;31943;51.410;7.564;2023-08-06T12:32:57;2.67;;;2.33;;
46222;SDS011;31943;51.410;7.564;2023-08-06T12:35:23;2.70;;;2.50;;
46222;SDS011;31943;51.410;7.564;2023-08-06T12:37:49;2.90;;;2.20;;
46222;SDS011;31943;51.410;7.564;2023-08-06T12:40:15;2.55;;;2.08;;
46222;SDS011;31943;51.410;7.564;2023-08-06T12:42:41;4.53;;;2.20;;
46222;SDS011;31943;51.410;7.564;2023-08-06T12:45:08;2.33;;;1.80;;
46222;SDS011;31943;51.410;7.564;2023-08-06T12:47:34;2.40;;;2.20;;
46222;SDS011;31943;51.410;7.564;2023-08-06T12:50:00;5.43;;;2.28;;
46222;SDS011;31943;51.410;7.564;2023-08-06T12:52:28;2.50;;;2.30;;
46222;SDS011;31943;51.410;7.564;2023-08-06T12:54:54;2.45;;;2.20;;
46222;SDS011;31943;51.410;7.564;2023-08-06T12:57:19;2.88;;;2.67;;
46222;SDS011;31943;51.410;7.564;2023-08-06T12:59:45;2.40;;;2.20;;
46222;SDS011;31943;51.410;7.564;2023-08-06T13:02:13;2.90;;;2.60;;
46222;SDS011;31943;51.410;7.564;2023-08-06T13:04:39;4.90;;;3.03;;
46222;SDS011;31943;51.410;7.564;2023-08-06T13:07:04;2.65;;;2.40;;
46222;SDS011;31943;51.410;7.564;2023-08-06T13:09:30;2.85;;;2.20;;
46222;SDS011;31943;51.410;7.564;2023-08-06T13:11:56;1.92;;;1.70;;
46222;SDS011;31943;51.410;7.564;2023-08-06T13:14:22;2.53;;;1.70;;
46222;SDS011;31943;51.410;7.564;2023-08-06T13:16:47;2.28;;;1.33;;
46222;SDS011;31943;51.410;7.564;2023-08-06T13:19:15;1.42;;;1.20;;
46222;SDS011;31943;51.410;7.564;2023-08-06T13:22:00;2.25;;;1.40;;
46222;SDS011;31943;51.410;7.564;2023-08-06T13:24:28;0.80;;;0.70;;
46222;SDS011;31943;51.410;7.564;2023-08-06T13:26:55;0.95;;;0.60;;
46222;SDS011;31943;51.410;7.564;2023-08-06T13:29:24;1.45;;;0.73;;
46222;SDS011;31943;51.410;7.564;2023-08-06T13:31:51;3.00;;;0.80;;
46222;SDS011;31943;51.410;7.564;2023-08-06T13:34:18;1.48;;;0.52;;
46222;SDS011;31943;51.410;7.564;2023-08-06T13:36:44;1.45;;;0.60;;
46222;SDS011;31943;51.410;7.564;2023-08-06T13:39:11;2.35;;;0.60;;
46222;SDS011;31943;51.410;7.564;2023-08-06T13:41:38;0.60;;;0.40;;
46222;SDS011;31943;51.410;7.564;2023-08-06T13:44:03;1.10;;;0.52;;
46222;SDS011;31943;51.410;7.564;2023-08-06T13:46:29;0.75;;;0.60;;
46222;SDS011;31943;51.410;7.564;2023-08-06T13:48:57;1.08;;;0.50;;
46222;SDS011;31943;51.410;7.564;2023-08-06T13:51:26;0.40;;;0.40;;
46222;SDS011;31943;51.410;7.564;2023-08-06T13:53:51;1.48;;;0.40;;
46222;SDS011;31943;51.410;7.564;2023-08-06T13:56:17;0.57;;;0.57;;
46222;SDS011;31943;51.410;7.564;2023-08-06T13:58:43;1.02;;;0.90;;
46222;SDS011;31943;51.410;7.564;2023-08-06T14:01:11;0.40;;;0.40;;
46222;SDS011;31943;51.410;7.564;2023-08-06T14:03:38;0.40;;;0.40;;
46222;SDS011;31943;51.410;7.564;2023-08-06T14:06:04;1.67;;;0.40;;
46222;SDS011;31943;51.410;7.564;2023-08-06T14:08:31;1.88;;;0.43;;
46222;SDS011;31943;51.410;7.564;2023-08-06T14:10:59;0.70;;;0.35;;
46222;SDS011;31943;51.410;7.564;2023-08-06T14:13:24;0.70;;;0.60;;
46222;SDS011;31943;51.410;7.564;2023-08-06T14:15:50;2.55;;;0.55;;
46222;SDS011;31943;51.410;7.564;2023-08-06T14:18:16;0.85;;;0.40;;
46222;SDS011;31943;51.410;7.564;2023-08-06T14:20:43;0.77;;;0.30;;
46222;SDS011;31943;51.410;7.564;2023-08-06T14:23:09;1.95;;;0.30;;
46222;SDS011;31943;51.410;7.564;2023-08-06T14:26:04;0.70;;;0.50;;
46222;SDS011;31943;51.410;7.564;2023-08-06T14:28:30;0.90;;;0.70;;
46222;SDS011;31943;51.410;7.564;2023-08-06T14:30:57;1.10;;;0.45;;
46222;SDS011;31943;51.410;7.564;2023-08-06T14:33:24;1.40;;;0.65;;
46222;SDS011;31943;51.410;7.564;2023-08-06T14:35:51;1.63;;;0.80;;
46222;SDS011;31943;51.410;7.564;2023-08-06T14:38:17;1.08;;;0.70;;
46222;SDS011;31943;51.410;7.564;2023-08-06T14:40:43;2.30;;;1.02;;
46222;SDS011;31943;51.410;7.564;2023-08-06T14:43:10;1.55;;;0.88;;
46222;SDS011;31943;51.410;7.564;2023-08-06T14:45:37;1.58;;;0.80;;
46222;SDS011;31943;51.410;7.564;2023-08-06T14:48:04;1.15;;;1.05;;